createdAt,value
2022-10-31T00:01:43.040Z,101334.38
2022-10-31T00:04:10.917Z,101328.34
2022-10-31T00:06:40.146Z,101326.66
2022-10-31T00:09:08.086Z,101329.28
2022-10-31T00:11:35.963Z,101335.44
2022-10-31T00:14:03.948Z,101337.13
2022-10-31T00:16:32.255Z,101342.31
2022-10-31T00:19:01.685Z,101344.03
2022-10-31T00:21:30.462Z,101345.78
2022-10-31T00:24:00.680Z,101339.72
2022-10-31T00:26:29.206Z,101338.88
2022-10-31T00:28:57.092Z,101344.81
2022-10-31T00:31:24.917Z,101341.34
2022-10-31T00:33:52.910Z,101332.69
2022-10-31T00:36:21.386Z,101336.16
2022-10-31T00:38:50.015Z,101327.47
2022-10-31T00:41:19.789Z,101326.63
2022-10-31T00:43:47.881Z,101335.44
2022-10-31T00:46:15.717Z,101333.72
2022-10-31T00:48:43.559Z,101343.28
2022-10-31T00:51:11.806Z,101342.41
2022-10-31T00:53:41.232Z,101345.78
2022-10-31T00:56:09.239Z,101345.78
2022-10-31T00:58:39.019Z,101343.16
2022-10-31T01:01:08.577Z,101357.19
2022-10-31T01:03:36.755Z,101343.34
2022-10-31T01:06:06.461Z,101336.34
2022-10-31T01:08:34.907Z,101358.06
2022-10-31T01:11:06.067Z,101359.78
2022-10-31T01:13:34.622Z,101366.69
2022-10-31T01:16:05.734Z,101362.34
2022-10-31T01:18:34.803Z,101355.41
2022-10-31T01:21:04.062Z,101351.94
2022-10-31T01:23:32.357Z,101353.72
2022-10-31T01:26:05.822Z,101349.41
2022-10-31T01:28:34.334Z,101359.81
2022-10-31T01:31:04.663Z,101358.94
2022-10-31T01:33:32.782Z,101366.00
2022-10-31T01:36:00.889Z,101353.91
2022-10-31T01:38:29.337Z,101360.03
2022-10-31T01:40:57.183Z,101364.41
2022-10-31T01:43:25.191Z,101360.94
2022-10-31T01:45:55.555Z,101364.41
2022-10-31T01:48:29.296Z,101366.28
2022-10-31T01:50:57.682Z,101370.72
2022-10-31T01:53:27.071Z,101366.53
2022-10-31T01:55:55.289Z,101368.34
2022-10-31T01:58:25.385Z,101377.13
2022-10-31T02:00:56.523Z,101378.88
2022-10-31T02:03:26.152Z,101386.72
2022-10-31T02:05:55.525Z,101383.22
2022-10-31T02:08:27.554Z,101380.63
2022-10-31T02:10:56.420Z,101391.84
2022-10-31T02:16:55.136Z,101380.50
2022-10-31T02:19:29.845Z,101377.94
2022-10-31T02:22:01.297Z,101389.28
2022-10-31T02:24:45.079Z,101397.06
2022-10-31T02:27:34.669Z,101395.38
2022-10-31T02:30:08.934Z,101398.78
2022-10-31T02:33:01.674Z,101390.13
2022-10-31T02:35:33.409Z,101395.34
2022-10-31T02:38:07.161Z,101407.53
2022-10-31T02:40:38.590Z,101417.91
2022-10-31T02:43:29.608Z,101406.66
2022-10-31T02:46:00.352Z,101404.06
2022-10-31T02:48:31.463Z,101403.25
2022-10-31T02:51:01.806Z,101411.03
2022-10-31T02:53:34.160Z,101408.44
2022-10-31T02:56:04.236Z,101398.13
2022-10-31T02:58:35.136Z,101405.91
2022-10-31T03:01:33.975Z,101404.16
2022-10-31T03:04:27.756Z,101411.16
2022-10-31T03:06:59.634Z,101411.22
2022-10-31T03:09:35.108Z,101408.63
2022-10-31T03:12:09.511Z,101408.66
2022-10-31T03:14:43.295Z,101410.41
2022-10-31T03:17:16.957Z,101420.84
2022-10-31T03:19:49.016Z,101412.19
2022-10-31T03:22:19.365Z,101424.25
2022-10-31T03:24:49.758Z,101425.19
2022-10-31T03:27:21.071Z,101419.13
2022-10-31T03:29:49.462Z,101423.50
2022-10-31T03:32:19.457Z,101423.53
2022-10-31T03:34:49.696Z,101420.09
2022-10-31T03:37:20.348Z,101427.03
2022-10-31T03:39:50.161Z,101436.59
2022-10-31T03:42:21.068Z,101432.25
2022-10-31T03:44:56.015Z,101436.63
2022-10-31T03:47:24.537Z,101443.56
2022-10-31T03:49:53.977Z,101440.09
2022-10-31T03:52:27.050Z,101437.47
2022-10-31T03:54:58.486Z,101444.41
2022-10-31T03:57:31.961Z,101454.75
2022-10-31T04:00:03.289Z,101447.00
2022-10-31T04:02:34.830Z,101450.53
2022-10-31T04:05:04.787Z,101466.09
2022-10-31T04:07:34.819Z,101455.66
2022-10-31T04:10:04.722Z,101454.81
2022-10-31T04:12:33.093Z,101454.81
2022-10-31T04:15:17.876Z,101447.88
2022-10-31T04:17:47.637Z,101450.47
2022-10-31T04:20:19.271Z,101458.31
2022-10-31T04:22:47.249Z,101471.28
2022-10-31T04:25:15.081Z,101464.38
2022-10-31T04:27:42.909Z,101468.69
2022-10-31T04:30:12.043Z,101469.53
2022-10-31T04:32:41.925Z,101473.00
2022-10-31T04:35:10.005Z,101474.75
2022-10-31T04:37:40.056Z,101470.38
2022-10-31T04:40:08.934Z,101474.75
2022-10-31T04:42:59.901Z,101478.25
2022-10-31T04:45:29.558Z,101480.81
2022-10-31T04:47:57.602Z,101473.06
2022-10-31T04:50:25.686Z,101482.56
2022-10-31T04:52:54.885Z,101475.66
2022-10-31T04:55:26.972Z,101481.72
2022-10-31T04:58:00.984Z,101482.56
2022-10-31T05:00:29.261Z,101486.91
2022-10-31T05:02:58.719Z,101494.69
2022-10-31T05:05:30.236Z,101494.66
2022-10-31T05:08:01.052Z,101501.59
2022-10-31T05:10:32.174Z,101502.47
2022-10-31T05:13:03.561Z,101495.56
2022-10-31T05:16:01.170Z,101498.16
2022-10-31T05:19:04.219Z,101499.91
2022-10-31T05:21:38.128Z,101504.19
2022-10-31T05:24:08.352Z,101504.94
2022-10-31T05:26:37.002Z,101510.13
2022-10-31T05:29:05.460Z,101513.53
2022-10-31T05:31:33.442Z,101508.19
2022-10-31T05:34:02.505Z,101512.38
2022-10-31T05:37:02.174Z,101506.44
2022-10-31T05:39:31.480Z,101504.66
2022-10-31T05:42:05.030Z,101511.59
2022-10-31T05:44:32.899Z,101509.06
2022-10-31T05:47:20.979Z,101506.44
2022-10-31T05:49:57.442Z,101506.16
2022-10-31T05:52:43.674Z,101505.78
2022-10-31T05:55:29.537Z,101511.56
2022-10-31T05:58:05.823Z,101515.69
2022-10-31T06:00:36.319Z,101513.94
2022-10-31T06:03:10.479Z,101520.56
2022-10-31T06:06:07.823Z,101510.88
2022-10-31T06:08:42.238Z,101520.25
2022-10-31T06:11:21.054Z,101518.34
2022-10-31T06:14:04.258Z,101519.78
2022-10-31T06:16:39.682Z,101518.78
2022-10-31T06:19:36.627Z,101518.78
2022-10-31T06:22:04.654Z,101522.13
2022-10-31T06:24:34.389Z,101508.09
2022-10-31T06:27:07.938Z,101515.88
2022-10-31T06:29:35.916Z,101515.00
2022-10-31T06:32:12.044Z,101520.22
2022-10-31T06:34:43.716Z,101516.69
2022-10-31T06:37:13.304Z,101522.72
2022-10-31T06:39:44.477Z,101525.25
2022-10-31T06:42:17.337Z,101531.31
2022-10-31T06:44:45.503Z,101527.88
2022-10-31T06:47:31.969Z,101525.78
2022-10-31T06:50:05.756Z,101532.47
2022-10-31T06:52:33.604Z,101539.28
2022-10-31T06:55:01.416Z,101545.25
2022-10-31T06:57:31.185Z,101545.81
2022-10-31T06:59:59.154Z,101552.47
2022-10-31T07:02:55.129Z,101560.25
2022-10-31T07:05:24.742Z,101568.06
2022-10-31T07:07:54.704Z,101559.19
2022-10-31T07:10:23.377Z,101567.81
2022-10-31T07:12:59.137Z,101570.34
2022-10-31T07:15:28.016Z,101570.16
2022-10-31T07:17:56.032Z,101574.25
2022-10-31T07:20:23.921Z,101575.13
2022-10-31T07:22:52.022Z,101577.75
2022-10-31T07:25:20.432Z,101582.09
2022-10-31T07:28:08.683Z,101587.28
2022-10-31T07:30:36.759Z,101585.50
2022-10-31T07:33:05.934Z,101579.38
2022-10-31T07:35:54.078Z,101577.69
2022-10-31T07:38:25.262Z,101587.09
2022-10-31T07:40:54.596Z,101592.88
2022-10-31T07:43:24.688Z,101591.06
2022-10-31T07:46:18.565Z,101590.91
2022-10-31T07:49:05.232Z,101596.00
2022-10-31T07:51:51.532Z,101602.06
2022-10-31T07:54:19.360Z,101605.41
2022-10-31T07:56:48.038Z,101599.38
2022-10-31T07:59:17.312Z,101602.59
2022-10-31T08:01:45.147Z,101607.06
2022-10-31T08:04:35.864Z,101610.53
2022-10-31T08:07:41.703Z,101615.72
2022-10-31T08:10:17.885Z,101622.22
2022-10-31T08:12:45.956Z,101618.03
2022-10-31T08:15:15.544Z,101620.41
2022-10-31T08:17:43.490Z,101634.66
2022-10-31T08:20:12.677Z,101636.97
2022-10-31T08:22:55.081Z,101643.84
2022-10-31T08:25:23.022Z,101648.19
2022-10-31T08:27:52.525Z,101650.66
2022-10-31T08:30:24.004Z,101651.81
2022-10-31T08:33:13.758Z,101648.78
2022-10-31T08:36:00.405Z,101651.94
2022-10-31T08:38:46.776Z,101663.28
2022-10-31T08:41:14.735Z,101666.97
2022-10-31T08:43:42.722Z,101667.75
2022-10-31T08:46:11.980Z,101664.16
2022-10-31T08:48:41.885Z,101660.88
2022-10-31T08:51:11.504Z,101661.63
2022-10-31T08:53:39.375Z,101670.81
2022-10-31T08:56:25.697Z,101665.47
2022-10-31T08:58:54.918Z,101669.81
2022-10-31T09:01:33.724Z,101676.66
2022-10-31T09:04:02.042Z,101680.22
2022-10-31T09:06:29.961Z,101675.06
2022-10-31T09:08:58.048Z,101681.66
2022-10-31T09:11:27.111Z,101680.88
2022-10-31T09:14:17.516Z,101692.22
2022-10-31T09:17:05.398Z,101697.59
2022-10-31T09:19:51.041Z,101691.34
2022-10-31T09:22:18.983Z,101688.56
2022-10-31T09:24:47.015Z,101698.03
2022-10-31T09:27:16.802Z,101698.69
2022-10-31T09:29:47.476Z,101702.94
2022-10-31T09:32:16.745Z,101699.47
2022-10-31T09:34:47.541Z,101708.06
2022-10-31T09:37:22.256Z,101717.66
2022-10-31T09:39:50.859Z,101719.50
2022-10-31T09:42:39.435Z,101723.63
2022-10-31T09:45:18.385Z,101738.41
2022-10-31T09:47:52.527Z,101739.19
2022-10-31T09:50:48.774Z,101737.69
2022-10-31T09:53:42.313Z,101746.28
2022-10-31T09:56:14.068Z,101757.75
2022-10-31T09:58:45.209Z,101752.22
2022-10-31T10:01:24.491Z,101759.19
2022-10-31T10:03:57.107Z,101760.94
2022-10-31T10:06:58.039Z,101760.09
2022-10-31T10:09:44.156Z,101763.44
2022-10-31T10:13:02.224Z,101768.34
2022-10-31T10:15:45.300Z,101766.69
2022-10-31T10:18:21.473Z,101777.38
2022-10-31T10:20:59.578Z,101783.38
2022-10-31T10:23:37.759Z,101789.03
2022-10-31T10:26:15.895Z,101780.91
2022-10-31T10:28:46.825Z,101776.06
2022-10-31T10:31:17.208Z,101794.56
2022-10-31T10:33:51.806Z,101791.38
2022-10-31T10:36:24.904Z,101782.53
2022-10-31T10:38:54.821Z,101784.91
2022-10-31T10:41:24.395Z,101788.19
2022-10-31T10:43:55.120Z,101795.88
2022-10-31T10:46:47.414Z,101800.13
2022-10-31T10:49:19.284Z,101795.88
2022-10-31T10:52:02.772Z,101791.75
2022-10-31T10:54:52.063Z,101799.47
2022-10-31T10:57:30.169Z,101794.56
2022-10-31T10:59:58.194Z,101803.09
2022-10-31T11:02:27.594Z,101799.50
2022-10-31T11:04:57.420Z,101802.69
2022-10-31T11:07:26.596Z,101811.97
2022-10-31T11:10:05.938Z,101795.22
2022-10-31T11:12:35.492Z,101798.63
2022-10-31T11:15:09.857Z,101790.59
2022-10-31T11:17:40.364Z,101790.50
2022-10-31T11:20:26.920Z,101788.88
2022-10-31T11:23:04.155Z,101794.53
2022-10-31T11:25:32.091Z,101786.50
2022-10-31T11:28:04.094Z,101777.66
2022-10-31T11:30:32.809Z,101786.53
2022-10-31T11:33:01.069Z,101774.91
2022-10-31T11:35:29.603Z,101776.75
2022-10-31T11:38:01.463Z,101779.19
2022-10-31T11:40:29.527Z,101787.38
2022-10-31T11:42:59.993Z,101792.53
2022-10-31T11:45:33.538Z,101801.38
2022-10-31T11:48:03.397Z,101789.34
2022-10-31T11:50:36.039Z,101792.31
2022-10-31T11:53:05.466Z,101790.63
2022-10-31T11:55:35.191Z,101794.91
2022-10-31T11:58:03.906Z,101793.47
2022-10-31T12:00:33.641Z,101795.19
2022-10-31T12:03:14.472Z,101786.06
2022-10-31T12:05:44.106Z,101799.06
2022-10-31T12:08:14.734Z,101789.88
2022-10-31T12:10:47.623Z,101791.09
2022-10-31T12:13:19.483Z,101791.16
2022-10-31T12:15:52.704Z,101793.06
2022-10-31T12:18:30.492Z,101804.66
2022-10-31T12:21:11.511Z,101801.06
2022-10-31T12:23:48.394Z,101803.88
2022-10-31T12:26:19.740Z,101800.09
2022-10-31T12:29:08.998Z,101803.03
2022-10-31T12:31:47.782Z,101796.13
2022-10-31T12:34:55.499Z,101792.69
2022-10-31T12:37:34.302Z,101791.84
2022-10-31T12:40:25.952Z,101791.97
2022-10-31T12:43:18.432Z,101781.53
2022-10-31T12:45:54.159Z,101785.97
2022-10-31T12:48:36.442Z,101776.38
2022-10-31T12:51:08.789Z,101790.97
2022-10-31T12:53:47.598Z,101785.69
2022-10-31T12:56:29.425Z,101781.22
2022-10-31T12:59:01.721Z,101773.53
2022-10-31T13:01:33.373Z,101777.78
2022-10-31T13:04:05.302Z,101786.56
2022-10-31T13:06:42.026Z,101791.06
2022-10-31T13:09:14.237Z,101793.59
2022-10-31T13:11:46.290Z,101796.28
2022-10-31T13:14:23.244Z,101792.22
2022-10-31T13:16:51.361Z,101793.38
2022-10-31T13:19:22.319Z,101795.88
2022-10-31T13:21:56.830Z,101787.63
2022-10-31T13:24:29.307Z,101788.31
2022-10-31T13:27:00.632Z,101784.81
2022-10-31T13:29:32.843Z,101781.41
2022-10-31T13:32:01.942Z,101779.72
2022-10-31T13:34:32.655Z,101781.47
2022-10-31T13:37:06.521Z,101779.81
2022-10-31T13:39:48.844Z,101777.81
2022-10-31T13:42:24.737Z,101776.22
2022-10-31T13:44:52.595Z,101773.38
2022-10-31T13:47:24.928Z,101769.78
2022-10-31T13:49:52.873Z,101761.28
2022-10-31T13:52:26.279Z,101761.38
2022-10-31T13:54:57.644Z,101759.72
2022-10-31T13:57:34.667Z,101762.16
2022-10-31T14:00:06.087Z,101760.44
2022-10-31T14:02:47.331Z,101756.84
2022-10-31T14:05:24.470Z,101753.66
2022-10-31T14:07:53.685Z,101753.78
2022-10-31T14:10:28.828Z,101753.78
2022-10-31T14:13:06.364Z,101759.91
2022-10-31T14:15:34.401Z,101768.78
2022-10-31T14:18:03.921Z,101767.09
2022-10-31T14:20:39.149Z,101762.81
2022-10-31T14:23:36.873Z,101758.28
2022-10-31T14:26:38.143Z,101749.56
2022-10-31T14:29:27.230Z,101739.69
2022-10-31T14:32:08.455Z,101746.94
2022-10-31T14:34:37.812Z,101748.13
2022-10-31T14:37:30.416Z,101753.16
2022-10-31T14:40:08.550Z,101742.91
2022-10-31T14:42:52.045Z,101749.13
2022-10-31T14:45:31.107Z,101749.13
2022-10-31T14:48:13.704Z,101753.69
2022-10-31T14:50:49.402Z,101747.47
2022-10-31T14:53:21.882Z,101740.44
2022-10-31T14:55:50.713Z,101735.38
2022-10-31T14:58:23.002Z,101735.28
2022-10-31T15:00:53.803Z,101738.06
2022-10-31T15:03:26.624Z,101738.06
2022-10-31T15:05:57.945Z,101735.41
2022-10-31T15:08:35.436Z,101733.66
2022-10-31T15:11:13.124Z,101732.03
2022-10-31T15:13:46.124Z,101727.69
2022-10-31T15:16:17.233Z,101733.66
2022-10-31T15:18:54.900Z,101731.09
2022-10-31T15:21:24.496Z,101732.00
2022-10-31T15:23:54.237Z,101735.44
2022-10-31T15:26:23.468Z,101739.94
2022-10-31T15:29:01.846Z,101738.34
2022-10-31T15:31:31.935Z,101739.69
2022-10-31T15:34:09.088Z,101734.47
2022-10-31T15:36:38.725Z,101724.34
2022-10-31T15:39:06.731Z,101720.94
2022-10-31T15:41:36.495Z,101722.66
2022-10-31T15:44:22.941Z,101724.34
2022-10-31T15:46:57.272Z,101724.34
2022-10-31T15:49:35.129Z,101724.22
2022-10-31T15:52:09.273Z,101731.28
2022-10-31T15:54:37.929Z,101727.91
2022-10-31T15:57:06.482Z,101726.13
2022-10-31T15:59:34.443Z,101734.84
2022-10-31T16:02:09.952Z,101714.81
2022-10-31T16:04:37.951Z,101727.91
2022-10-31T16:07:21.816Z,101723.53
2022-10-31T16:09:52.367Z,101719.19
2022-10-31T16:12:22.607Z,101719.19
2022-10-31T16:14:51.253Z,101717.53
2022-10-31T16:17:23.011Z,101714.06
2022-10-31T16:19:54.872Z,101712.41
2022-10-31T16:22:25.932Z,101702.00
2022-10-31T16:24:57.593Z,101707.22
2022-10-31T16:27:29.483Z,101711.47
2022-10-31T16:30:02.268Z,101701.97
2022-10-31T16:32:35.561Z,101694.13
2022-10-31T16:35:20.103Z,101693.38
2022-10-31T16:37:47.906Z,101700.25
2022-10-31T16:40:16.622Z,101705.53
2022-10-31T16:42:45.418Z,101707.28
2022-10-31T16:45:18.200Z,101704.69
2022-10-31T16:47:47.485Z,101703.75
2022-10-31T16:50:17.839Z,101690.53
2022-10-31T16:53:08.391Z,101690.75
2022-10-31T16:55:35.921Z,101689.03
2022-10-31T16:58:04.238Z,101693.41
2022-10-31T17:00:32.683Z,101691.75
2022-10-31T17:03:02.208Z,101687.41
2022-10-31T17:05:32.891Z,101689.22
2022-10-31T17:08:01.264Z,101681.38
2022-10-31T17:10:29.429Z,101682.06
2022-10-31T17:12:57.957Z,101682.97
2022-10-31T17:15:27.671Z,101669.03
2022-10-31T17:17:56.221Z,101675.09
2022-10-31T17:20:28.245Z,101672.53
2022-10-31T17:22:56.985Z,101676.00
2022-10-31T17:25:27.323Z,101680.31
2022-10-31T17:27:55.202Z,101683.81
2022-10-31T17:30:23.977Z,101677.56
2022-10-31T17:32:52.149Z,101670.00
2022-10-31T17:35:20.603Z,101668.16
2022-10-31T17:37:50.159Z,101655.91
2022-10-31T17:40:20.593Z,101652.53
2022-10-31T17:42:52.380Z,101656.97
2022-10-31T17:45:21.308Z,101646.56
2022-10-31T17:47:49.853Z,101650.09
2022-10-31T17:50:18.640Z,101636.22
2022-10-31T17:52:46.778Z,101638.91
2022-10-31T17:55:16.747Z,101634.47
2022-10-31T17:57:45.189Z,101630.25
2022-10-31T18:00:14.787Z,101627.69
2022-10-31T18:02:42.740Z,101612.84
2022-10-31T18:05:11.029Z,101609.38
2022-10-31T18:07:38.899Z,101614.72
2022-10-31T18:10:08.032Z,101602.50
2022-10-31T18:12:38.517Z,101606.94
2022-10-31T18:15:07.404Z,101600.75
2022-10-31T18:17:36.960Z,101596.31
2022-10-31T18:20:08.410Z,101598.94
2022-10-31T18:22:36.238Z,101599.03
2022-10-31T18:25:04.654Z,101592.88
2022-10-31T18:27:32.598Z,101592.94
2022-10-31T18:30:02.043Z,101588.38
2022-10-31T18:32:29.910Z,101596.22
2022-10-31T18:34:57.752Z,101592.75
2022-10-31T18:37:25.560Z,101582.28
2022-10-31T18:39:53.576Z,101576.78
2022-10-31T18:42:21.376Z,101572.56
2022-10-31T18:44:49.212Z,101567.22
2022-10-31T18:47:19.178Z,101564.63
2022-10-31T18:49:47.004Z,101574.19
2022-10-31T18:52:14.779Z,101569.72
2022-10-31T18:54:42.723Z,101570.78
2022-10-31T18:57:10.509Z,101566.56
2022-10-31T18:59:38.491Z,101559.69
2022-10-31T19:02:06.478Z,101551.75
2022-10-31T19:04:35.803Z,101557.94
2022-10-31T19:07:03.682Z,101557.94
2022-10-31T19:09:31.906Z,101546.69
2022-10-31T19:11:59.691Z,101544.03
2022-10-31T19:14:27.544Z,101547.47
2022-10-31T19:16:58.326Z,101546.56
2022-10-31T19:19:28.962Z,101554.63
2022-10-31T19:21:58.187Z,101546.75
2022-10-31T19:24:26.094Z,101531.09
2022-10-31T19:26:54.205Z,101543.28
2022-10-31T19:29:22.124Z,101540.69
2022-10-31T19:31:49.955Z,101542.31
2022-10-31T19:34:17.841Z,101537.19
2022-10-31T19:36:45.756Z,101536.25
2022-10-31T19:39:15.290Z,101544.06
2022-10-31T19:41:43.158Z,101541.22
2022-10-31T19:44:13.372Z,101539.50
2022-10-31T19:46:52.708Z,101528.84
2022-10-31T19:49:21.511Z,101532.38
2022-10-31T19:51:49.438Z,101529.09
2022-10-31T19:54:18.905Z,101523.81
2022-10-31T19:56:46.834Z,101525.59
2022-10-31T19:59:14.919Z,101527.31
2022-10-31T20:01:43.010Z,101523.75
2022-10-31T20:04:11.210Z,101528.09
2022-10-31T20:06:41.101Z,101521.00
2022-10-31T20:09:10.668Z,101519.38
2022-10-31T20:11:40.244Z,101519.34
2022-10-31T20:14:08.882Z,101524.47
2022-10-31T20:16:37.068Z,101524.34
2022-10-31T20:19:05.372Z,101506.13
2022-10-31T20:21:38.114Z,101512.94
2022-10-31T20:24:08.364Z,101522.44
2022-10-31T20:26:37.945Z,101528.53
2022-10-31T20:29:07.347Z,101535.69
2022-10-31T20:31:37.113Z,101519.16
2022-10-31T20:34:05.233Z,101501.56
2022-10-31T20:36:33.116Z,101499.81
2022-10-31T20:39:01.401Z,101492.69
2022-10-31T20:41:29.487Z,101491.09
2022-10-31T20:43:57.468Z,101479.91
2022-10-31T20:46:27.906Z,101485.91
2022-10-31T20:48:56.412Z,101478.16
2022-10-31T20:51:25.777Z,101472.81
2022-10-31T20:53:55.079Z,101462.34
2022-10-31T20:56:24.840Z,101469.22
2022-10-31T20:58:53.515Z,101466.63
2022-10-31T21:01:23.330Z,101472.47
2022-10-31T21:03:52.931Z,101457.78
2022-10-31T21:06:23.187Z,101457.53
2022-10-31T21:08:51.754Z,101454.72
2022-10-31T21:11:21.322Z,101443.69
2022-10-31T21:13:50.094Z,101439.25
2022-10-31T21:16:20.057Z,101440.16
2022-10-31T21:18:49.176Z,101439.47
2022-10-31T21:21:19.678Z,101440.75
2022-10-31T21:23:48.044Z,101433.78
2022-10-31T21:26:17.717Z,101422.41
2022-10-31T21:28:46.073Z,101424.00
2022-10-31T21:31:16.118Z,101407.41
2022-10-31T21:33:44.948Z,101405.53
2022-10-31T21:36:13.395Z,101403.09
2022-10-31T21:38:42.624Z,101400.31
2022-10-31T21:41:11.905Z,101396.66
2022-10-31T21:43:41.085Z,101393.31
2022-10-31T21:46:10.502Z,101395.09
2022-10-31T21:48:41.344Z,101382.72
2022-10-31T21:51:10.733Z,101370.41
2022-10-31T21:53:56.628Z,101364.16
2022-10-31T21:56:26.315Z,101356.44
2022-10-31T21:58:54.957Z,101364.41
2022-10-31T22:01:24.467Z,101364.22
2022-10-31T22:03:52.489Z,101361.69
2022-10-31T22:06:20.473Z,101358.94
2022-10-31T22:08:48.492Z,101350.88
2022-10-31T22:11:18.545Z,101343.22
2022-10-31T22:13:49.331Z,101343.78
2022-10-31T22:16:18.367Z,101331.84
2022-10-31T22:18:46.440Z,101328.50
2022-10-31T22:21:16.088Z,101325.91
2022-10-31T22:23:44.528Z,101322.50
2022-10-31T22:26:17.217Z,101308.44
2022-10-31T22:28:48.655Z,101309.44
2022-10-31T22:31:18.208Z,101310.34
2022-10-31T22:33:46.552Z,101310.94
2022-10-31T22:36:16.967Z,101303.41
2022-10-31T22:38:45.854Z,101303.19
2022-10-31T22:41:18.022Z,101304.94
2022-10-31T22:43:45.978Z,101299.09
2022-10-31T22:46:16.343Z,101303.34
2022-10-31T22:48:45.799Z,101306.84
2022-10-31T22:51:15.452Z,101312.22
2022-10-31T22:53:43.726Z,101311.50
2022-10-31T22:56:13.030Z,101303.53
2022-10-31T22:58:41.025Z,101303.44
2022-10-31T23:01:09.510Z,101302.59
2022-10-31T23:03:39.546Z,101298.25
2022-10-31T23:06:09.019Z,101305.47
2022-10-31T23:08:38.114Z,101310.97
2022-10-31T23:11:15.176Z,101307.59
2022-10-31T23:14:00.480Z,101314.38
2022-10-31T23:16:28.304Z,101303.31
2022-10-31T23:18:57.515Z,101314.50
2022-10-31T23:21:55.075Z,101308.56
2022-10-31T23:24:24.649Z,101304.13
2022-10-31T23:27:07.770Z,101306.00
2022-10-31T23:29:36.131Z,101299.00
2022-10-31T23:32:04.879Z,101298.19
2022-10-31T23:34:34.109Z,101300.00
2022-10-31T23:37:02.085Z,101303.66
2022-10-31T23:39:29.966Z,101298.25
2022-10-31T23:41:57.858Z,101297.59
2022-10-31T23:44:25.670Z,101293.19
2022-10-31T23:46:53.524Z,101285.38
2022-10-31T23:49:21.640Z,101286.16
2022-10-31T23:51:51.112Z,101282.06
2022-10-31T23:54:19.185Z,101288.88
2022-10-31T23:56:47.009Z,101290.63
2022-10-31T23:59:14.838Z,101288.25
